createdAt,value
2018-02-08T00:00:39.124Z,31.12
2018-02-08T00:03:06.648Z,32.65
2018-02-08T00:05:35.067Z,35.00
2018-02-08T00:08:02.609Z,32.95
2018-02-08T00:10:30.131Z,33.60
2018-02-08T00:12:57.698Z,32.40
2018-02-08T00:15:26.256Z,32.30
2018-02-08T00:17:53.902Z,31.10
2018-02-08T00:20:21.418Z,34.28
2018-02-08T00:22:48.993Z,35.40
2018-02-08T00:25:16.504Z,34.90
2018-02-08T00:27:44.102Z,37.47
2018-02-08T00:30:11.675Z,33.08
2018-02-08T00:32:39.281Z,34.70
2018-02-08T00:35:06.895Z,35.22
2018-02-08T00:37:34.490Z,35.17
2018-02-08T00:40:02.050Z,35.15
2018-02-08T00:42:29.591Z,37.30
2018-02-08T00:44:57.133Z,34.63
2018-02-08T00:47:24.687Z,32.88
2018-02-08T00:49:53.426Z,36.30
2018-02-08T00:52:20.963Z,35.85
2018-02-08T00:54:48.528Z,36.65
2018-02-08T00:57:16.086Z,36.53
2018-02-08T00:59:43.605Z,34.83
2018-02-08T01:02:11.149Z,33.90
2018-02-08T01:04:39.439Z,33.85
2018-02-08T01:07:06.984Z,34.33
2018-02-08T01:09:35.261Z,31.58
2018-02-08T01:12:03.672Z,33.22
2018-02-08T01:14:31.194Z,33.45
2018-02-08T01:16:59.555Z,33.42
2018-02-08T01:19:27.071Z,33.53
2018-02-08T01:21:54.628Z,32.70
2018-02-08T01:24:22.188Z,32.00
2018-02-08T01:26:49.719Z,33.13
2018-02-08T01:29:18.073Z,35.67
2018-02-08T01:31:45.611Z,33.03
2018-02-08T01:34:13.237Z,33.08
2018-02-08T01:36:40.770Z,32.83
2018-02-08T01:39:09.094Z,31.98
2018-02-08T01:41:36.743Z,35.20
2018-02-08T01:44:04.275Z,34.13
2018-02-08T01:46:32.607Z,32.90
2018-02-08T01:49:00.236Z,33.63
2018-02-08T01:51:27.754Z,35.55
2018-02-08T01:53:56.078Z,31.85
2018-02-08T01:56:23.595Z,34.55
2018-02-08T01:58:51.903Z,33.90
2018-02-08T02:01:19.409Z,35.38
2018-02-08T02:03:46.940Z,33.90
2018-02-08T02:06:14.484Z,31.95
2018-02-08T02:08:42.142Z,33.03
2018-02-08T02:11:09.679Z,32.53
2018-02-08T02:13:37.960Z,33.95
2018-02-08T02:16:05.536Z,33.30
2018-02-08T02:18:33.040Z,35.05
2018-02-08T02:21:00.564Z,34.50
2018-02-08T02:23:28.217Z,34.45
2018-02-08T02:25:55.775Z,32.80
2018-02-08T02:28:24.050Z,33.35
2018-02-08T02:30:51.675Z,32.67
2018-02-08T02:33:19.212Z,32.50
2018-02-08T02:35:46.829Z,34.42
2018-02-08T02:38:14.355Z,35.92
2018-02-08T02:40:42.637Z,31.33
2018-02-08T02:43:10.947Z,31.87
2018-02-08T02:45:38.458Z,34.90
2018-02-08T02:48:06.068Z,34.80
2018-02-08T02:50:33.590Z,33.38
2018-02-08T02:53:01.924Z,33.97
2018-02-08T02:55:29.471Z,33.70
2018-02-08T02:57:57.012Z,34.75
2018-02-08T03:00:24.530Z,33.20
2018-02-08T03:02:52.140Z,35.25
2018-02-08T03:05:19.763Z,33.83
2018-02-08T03:07:48.177Z,34.45
2018-02-08T03:10:15.736Z,33.97
2018-02-08T03:12:56.921Z,35.58
2018-02-08T03:15:25.223Z,34.17
2018-02-08T03:17:52.931Z,34.60
2018-02-08T03:20:21.207Z,33.35
2018-02-08T03:22:50.331Z,32.45
2018-02-08T03:25:17.862Z,34.17
2018-02-08T03:27:46.164Z,34.53
2018-02-08T03:30:13.966Z,35.15
2018-02-08T03:32:41.524Z,33.38
2018-02-08T03:35:09.047Z,32.28
2018-02-08T03:37:36.589Z,33.22
2018-02-08T03:40:04.986Z,33.92
2018-02-08T03:42:32.510Z,34.70
2018-02-08T03:45:00.818Z,32.75
2018-02-08T03:47:28.351Z,33.72
2018-02-08T03:49:56.649Z,31.27
2018-02-08T03:52:24.182Z,33.45
2018-02-08T03:54:52.454Z,32.35
2018-02-08T03:57:21.740Z,34.42
2018-02-08T03:59:49.265Z,34.50
2018-02-08T04:02:16.814Z,30.95
2018-02-08T04:04:44.345Z,31.92
2018-02-08T04:07:12.645Z,31.80
2018-02-08T04:09:40.306Z,31.30
2018-02-08T04:12:07.918Z,31.50
2018-02-08T04:14:35.514Z,32.30
2018-02-08T04:17:03.071Z,29.98
2018-02-08T04:19:30.603Z,32.55
2018-02-08T04:21:58.143Z,31.50
2018-02-08T04:24:25.779Z,32.05
2018-02-08T04:26:53.316Z,32.67
2018-02-08T04:29:20.833Z,33.25
2018-02-08T04:31:48.415Z,34.53
2018-02-08T04:34:16.693Z,33.30
2018-02-08T04:36:45.082Z,33.22
2018-02-08T04:39:24.698Z,32.35
2018-02-08T04:42:04.127Z,31.45
2018-02-08T04:44:43.513Z,30.70
2018-02-08T04:47:23.112Z,30.50
2018-02-08T04:49:50.713Z,32.85
2018-02-08T04:52:18.383Z,30.98
2018-02-08T04:54:46.093Z,39.92
2018-02-08T04:57:14.422Z,33.67
2018-02-08T04:59:41.949Z,32.30
2018-02-08T05:02:13.922Z,30.65
2018-02-08T05:04:41.900Z,31.12
2018-02-08T05:07:09.447Z,32.78
2018-02-08T05:09:37.751Z,34.05
2018-02-08T05:12:05.327Z,33.38
2018-02-08T05:14:32.840Z,31.00
2018-02-08T05:17:01.162Z,32.05
2018-02-08T05:19:28.725Z,34.00
2018-02-08T05:21:56.310Z,34.30
2018-02-08T05:24:23.832Z,32.08
2018-02-08T05:26:51.386Z,33.55
2018-02-08T05:29:18.918Z,32.45
2018-02-08T05:31:46.496Z,32.33
2018-02-08T05:34:14.071Z,31.30
2018-02-08T05:36:41.707Z,33.17
2018-02-08T05:39:09.221Z,33.67
2018-02-08T05:41:36.836Z,31.12
2018-02-08T05:44:04.382Z,31.17
2018-02-08T05:46:31.924Z,33.03
2018-02-08T05:49:00.249Z,35.72
2018-02-08T05:51:27.796Z,34.28
2018-02-08T05:53:55.356Z,34.25
2018-02-08T05:56:23.004Z,33.42
2018-02-08T05:58:50.527Z,35.03
2018-02-08T06:01:18.079Z,32.80
2018-02-08T06:03:45.594Z,33.45
2018-02-08T06:06:13.130Z,34.72
2018-02-08T06:08:40.648Z,34.05
2018-02-08T06:11:08.213Z,35.35
2018-02-08T06:13:35.817Z,34.30
2018-02-08T06:16:03.419Z,33.70
2018-02-08T06:18:30.934Z,35.75
2018-02-08T06:20:58.508Z,35.40
2018-02-08T06:23:26.046Z,36.92
2018-02-08T06:25:53.635Z,36.78
2018-02-08T06:28:21.249Z,37.42
2018-02-08T06:30:49.583Z,34.47
2018-02-08T06:33:17.102Z,35.50
2018-02-08T06:35:44.783Z,33.75
2018-02-08T06:38:12.625Z,36.50
2018-02-08T06:40:40.283Z,32.95
2018-02-08T06:43:08.587Z,35.10
2018-02-08T06:45:36.248Z,35.53
2018-02-08T06:48:03.757Z,33.80
2018-02-08T06:50:31.343Z,33.90
2018-02-08T06:52:59.647Z,35.00
2018-02-08T06:55:27.191Z,35.88
2018-02-08T06:57:54.820Z,33.83
2018-02-08T07:00:22.546Z,34.80
2018-02-08T07:02:50.201Z,33.33
2018-02-08T07:05:17.751Z,35.47
2018-02-08T07:07:45.303Z,32.65
2018-02-08T07:10:12.864Z,34.30
2018-02-08T07:12:40.404Z,32.00
2018-02-08T07:15:08.786Z,33.35
2018-02-08T07:17:36.325Z,34.45
2018-02-08T07:20:04.638Z,33.95
2018-02-08T07:22:32.163Z,33.10
2018-02-08T07:25:00.497Z,32.95
2018-02-08T07:27:28.084Z,32.03
2018-02-08T07:29:55.672Z,29.77
2018-02-08T07:32:23.995Z,32.58
2018-02-08T07:34:51.557Z,31.10
2018-02-08T07:37:19.095Z,31.77
2018-02-08T07:39:46.650Z,31.45
2018-02-08T07:42:14.186Z,30.52
2018-02-08T07:44:42.484Z,30.50
2018-02-08T07:47:10.004Z,32.30
2018-02-08T07:49:38.309Z,32.95
2018-02-08T07:52:05.829Z,33.22
2018-02-08T07:54:33.388Z,31.20
2018-02-08T07:57:00.896Z,31.87
2018-02-08T07:59:28.435Z,30.42
2018-02-08T08:01:56.037Z,31.33
2018-02-08T08:04:24.975Z,28.62
2018-02-08T08:06:53.290Z,29.05
2018-02-08T08:09:20.872Z,30.30
2018-02-08T08:11:48.495Z,29.73
2018-02-08T08:14:16.037Z,31.23
2018-02-08T08:16:44.321Z,30.88
2018-02-08T08:19:12.621Z,31.20
2018-02-08T08:21:40.144Z,28.33
2018-02-08T08:24:08.450Z,30.58
2018-02-08T08:26:36.152Z,29.12
2018-02-08T08:29:08.343Z,30.50
2018-02-08T08:31:36.677Z,31.40
2018-02-08T08:34:04.215Z,30.20
2018-02-08T08:36:31.763Z,28.40
2018-02-08T08:38:59.306Z,30.00
2018-02-08T08:41:27.586Z,31.70
2018-02-08T08:43:55.154Z,30.42
2018-02-08T08:46:22.676Z,32.50
2018-02-08T08:48:50.207Z,29.77
2018-02-08T08:51:17.834Z,31.83
2018-02-08T08:53:46.111Z,31.92
2018-02-08T08:56:13.785Z,31.02
2018-02-08T08:58:41.353Z,33.42
2018-02-08T09:01:08.906Z,33.83
2018-02-08T09:03:36.435Z,31.90
2018-02-08T09:06:04.872Z,32.20
2018-02-08T09:08:32.382Z,34.42
2018-02-08T09:10:59.998Z,33.50
2018-02-08T09:13:27.508Z,31.65
2018-02-08T09:15:55.127Z,31.08
2018-02-08T09:18:22.647Z,33.90
2018-02-08T09:20:50.180Z,33.30
2018-02-08T09:23:17.686Z,33.95
2018-02-08T09:25:46.008Z,31.75
2018-02-08T09:28:13.577Z,31.10
2018-02-08T09:30:41.115Z,32.60
2018-02-08T09:33:09.426Z,34.90
2018-02-08T09:35:37.182Z,34.90
2018-02-08T09:38:15.619Z,35.55
2018-02-08T09:40:43.643Z,34.60
2018-02-08T09:43:12.299Z,32.65
2018-02-08T09:45:39.944Z,32.80
2018-02-08T09:48:07.443Z,32.75
2018-02-08T09:50:35.764Z,32.20
2018-02-08T09:53:03.758Z,31.02
2018-02-08T09:55:31.403Z,33.08
2018-02-08T09:57:58.969Z,34.00
2018-02-08T10:00:29.465Z,34.30
2018-02-08T10:02:57.027Z,36.53
2018-02-08T10:05:24.598Z,34.15
2018-02-08T10:07:52.127Z,33.95
2018-02-08T10:10:19.712Z,34.20
2018-02-08T10:12:47.266Z,34.03
2018-02-08T10:15:15.368Z,33.20
2018-02-08T10:17:43.002Z,34.05
2018-02-08T10:20:10.545Z,34.45
2018-02-08T10:22:38.069Z,34.40
2018-02-08T10:25:05.621Z,35.00
2018-02-08T10:27:33.146Z,35.75
2018-02-08T10:30:00.792Z,35.03
2018-02-08T10:32:28.388Z,37.83
2018-02-08T10:34:55.935Z,35.90
2018-02-08T10:37:23.651Z,34.95
2018-02-08T10:39:51.206Z,37.55
2018-02-08T10:42:19.526Z,36.70
2018-02-08T10:44:47.072Z,36.88
2018-02-08T10:47:14.597Z,36.05
2018-02-08T10:49:42.174Z,40.10
2018-02-08T10:52:09.734Z,36.85
2018-02-08T10:54:37.286Z,37.78
2018-02-08T10:57:04.915Z,37.42
2018-02-08T10:59:33.235Z,40.05
2018-02-08T11:02:00.998Z,40.47
2018-02-08T11:04:28.603Z,38.30
2018-02-08T11:06:56.118Z,38.55
2018-02-08T11:09:23.671Z,37.15
2018-02-08T11:11:51.193Z,40.67
2018-02-08T11:14:18.747Z,39.05
2018-02-08T11:16:47.786Z,39.05
2018-02-08T11:19:15.483Z,41.33
2018-02-08T11:21:43.078Z,42.05
2018-02-08T11:24:11.611Z,40.00
2018-02-08T11:26:39.271Z,41.03
2018-02-08T11:29:06.851Z,40.97
2018-02-08T11:31:34.434Z,42.75
2018-02-08T11:34:01.962Z,41.53
2018-02-08T11:36:29.512Z,44.40
2018-02-08T11:38:57.190Z,41.25
2018-02-08T11:41:24.743Z,43.35
2018-02-08T11:43:52.299Z,42.55
2018-02-08T11:46:19.826Z,44.88
2018-02-08T11:48:47.470Z,45.20
2018-02-08T11:51:15.780Z,44.42
2018-02-08T11:53:43.421Z,46.58
2018-02-08T11:56:11.881Z,45.35
2018-02-08T11:58:39.480Z,40.92
2018-02-08T12:01:07.011Z,45.12
2018-02-08T12:03:35.332Z,44.55
2018-02-08T12:06:02.846Z,44.67
2018-02-08T12:08:31.156Z,46.15
2018-02-08T12:10:58.691Z,46.80
2018-02-08T12:13:27.051Z,47.70
2018-02-08T12:15:55.398Z,47.58
2018-02-08T12:18:22.930Z,48.25
2018-02-08T12:20:50.489Z,47.35
2018-02-08T12:23:18.031Z,47.97
2018-02-08T12:25:45.605Z,47.80
2018-02-08T12:28:13.270Z,48.72
2018-02-08T12:30:40.843Z,48.22
2018-02-08T12:33:08.390Z,47.65
2018-02-08T12:35:35.943Z,48.00
2018-02-08T12:38:03.464Z,48.20
2018-02-08T12:40:31.163Z,47.60
2018-02-08T12:43:00.393Z,46.95
2018-02-08T12:45:27.938Z,47.15
2018-02-08T12:47:55.540Z,45.05
2018-02-08T12:50:23.067Z,44.85
2018-02-08T12:52:50.639Z,41.50
2018-02-08T12:55:18.182Z,42.92
2018-02-08T12:57:45.822Z,40.22
2018-02-08T13:00:14.290Z,39.67
2018-02-08T13:02:42.022Z,40.42
2018-02-08T13:05:09.531Z,43.40
2018-02-08T13:07:37.907Z,42.33
2018-02-08T13:10:05.456Z,41.13
2018-02-08T13:12:32.998Z,40.38
2018-02-08T13:15:01.294Z,43.33
2018-02-08T13:17:28.827Z,41.05
2018-02-08T13:19:57.114Z,41.03
2018-02-08T13:22:25.449Z,41.65
2018-02-08T13:24:52.980Z,41.47
2018-02-08T13:27:20.558Z,40.97
2018-02-08T13:29:48.072Z,38.00
2018-02-08T13:32:16.336Z,38.00
2018-02-08T13:34:44.683Z,38.42
2018-02-08T13:37:13.273Z,39.63
2018-02-08T13:39:45.132Z,41.28
2018-02-08T13:42:12.679Z,40.63
2018-02-08T13:44:40.208Z,38.22
2018-02-08T13:47:23.506Z,39.08
2018-02-08T13:49:54.558Z,41.67
2018-02-08T13:52:42.809Z,38.38
2018-02-08T13:55:15.994Z,36.83
2018-02-08T13:57:54.374Z,37.20
2018-02-08T14:00:40.491Z,39.03
2018-02-08T14:03:08.803Z,37.88
2018-02-08T14:05:38.846Z,38.28
2018-02-08T14:08:06.438Z,39.75
2018-02-08T14:10:34.710Z,40.83
2018-02-08T14:13:03.185Z,39.55
2018-02-08T14:15:30.707Z,38.22
2018-02-08T14:17:58.266Z,39.35
2018-02-08T14:20:25.861Z,40.97
2018-02-08T14:22:53.519Z,37.67
2018-02-08T14:25:21.068Z,40.75
2018-02-08T14:27:48.641Z,38.35
2018-02-08T14:30:16.253Z,41.92
2018-02-08T14:32:43.801Z,38.90
2018-02-08T14:35:11.330Z,40.95
2018-02-08T14:37:38.878Z,40.88
2018-02-08T14:40:06.494Z,40.17
2018-02-08T14:42:34.113Z,41.40
2018-02-08T14:45:02.442Z,41.40
2018-02-08T14:47:31.087Z,42.33
2018-02-08T14:49:59.546Z,42.08
2018-02-08T14:52:27.156Z,43.85
2018-02-08T14:54:54.699Z,42.83
2018-02-08T14:57:22.383Z,42.00
2018-02-08T14:59:49.948Z,41.78
2018-02-08T15:02:17.619Z,44.35
2018-02-08T15:04:45.172Z,44.47
2018-02-08T15:07:12.708Z,42.90
2018-02-08T15:09:40.223Z,45.22
2018-02-08T15:12:07.767Z,45.47
2018-02-08T15:14:35.286Z,39.78
2018-02-08T15:17:02.830Z,42.50
2018-02-08T15:19:30.492Z,46.15
2018-02-08T15:21:58.052Z,42.92
2018-02-08T15:24:26.458Z,43.15
2018-02-08T15:26:54.125Z,42.08
2018-02-08T15:29:21.670Z,43.00
2018-02-08T15:31:49.242Z,41.42
2018-02-08T15:34:16.767Z,40.80
2018-02-08T15:36:44.354Z,45.28
2018-02-08T15:39:11.873Z,42.03
2018-02-08T15:41:40.297Z,41.78
2018-02-08T15:44:07.810Z,41.83
2018-02-08T15:46:36.124Z,42.00
2018-02-08T15:49:03.830Z,45.42
2018-02-08T15:51:31.433Z,42.33
2018-02-08T15:53:58.955Z,41.08
2018-02-08T15:56:26.516Z,42.78
2018-02-08T15:58:54.048Z,43.13
2018-02-08T16:01:21.769Z,44.53
2018-02-08T16:03:50.203Z,44.20
2018-02-08T16:06:17.727Z,41.92
2018-02-08T16:08:45.277Z,42.50
2018-02-08T16:11:12.806Z,43.42
2018-02-08T16:13:40.336Z,45.47
2018-02-08T16:16:07.883Z,46.25
2018-02-08T16:18:35.626Z,46.28
2018-02-08T16:21:03.176Z,44.65
2018-02-08T16:23:30.864Z,44.40
2018-02-08T16:25:58.361Z,42.90
2018-02-08T16:28:26.726Z,43.63
2018-02-08T16:30:54.230Z,45.70
2018-02-08T16:33:21.803Z,43.60
2018-02-08T16:35:49.346Z,43.83
2018-02-08T16:38:16.920Z,43.20
2018-02-08T16:40:44.427Z,43.65
2018-02-08T16:43:11.967Z,44.67
2018-02-08T16:45:39.469Z,46.22
2018-02-08T16:48:07.772Z,42.92
2018-02-08T16:50:35.279Z,43.35
2018-02-08T16:53:02.835Z,43.65
2018-02-08T16:55:30.369Z,43.33
2018-02-08T16:57:57.921Z,43.83
2018-02-08T17:00:25.438Z,42.62
2018-02-08T17:02:53.770Z,45.15
2018-02-08T17:05:21.278Z,44.55
2018-02-08T17:07:49.694Z,43.55
2018-02-08T17:10:18.351Z,43.58
2018-02-08T17:12:45.951Z,44.60
2018-02-08T17:15:13.477Z,44.28
2018-02-08T17:17:41.000Z,43.42
2018-02-08T17:20:09.400Z,41.55
2018-02-08T17:22:37.675Z,42.80
2018-02-08T17:25:05.995Z,43.60
2018-02-08T17:27:33.505Z,42.60
2018-02-08T17:30:01.885Z,40.63
2018-02-08T17:32:29.570Z,39.05
2018-02-08T17:34:57.117Z,39.05
2018-02-08T17:37:25.412Z,41.95
2018-02-08T17:39:53.299Z,39.65
2018-02-08T17:42:20.915Z,39.45
2018-02-08T17:44:49.237Z,38.35
2018-02-08T17:47:16.750Z,36.03
2018-02-08T17:49:45.258Z,39.58
2018-02-08T17:52:12.781Z,37.55
2018-02-08T17:54:41.143Z,39.08
2018-02-08T17:57:08.751Z,35.42
2018-02-08T17:59:36.408Z,37.40
2018-02-08T18:02:03.927Z,37.42
2018-02-08T18:04:31.471Z,37.83
2018-02-08T18:06:59.104Z,36.47
2018-02-08T18:09:26.859Z,37.42
2018-02-08T18:11:54.394Z,34.58
2018-02-08T18:14:22.779Z,35.90
2018-02-08T18:16:50.360Z,34.70
2018-02-08T18:19:17.991Z,34.78
2018-02-08T18:21:46.321Z,38.15
2018-02-08T18:24:13.898Z,36.83
2018-02-08T18:26:42.202Z,35.20
2018-02-08T18:29:10.514Z,39.03
2018-02-08T18:31:38.040Z,39.90
2018-02-08T18:34:06.396Z,39.78
2018-02-08T18:36:33.954Z,38.65
2018-02-08T18:39:02.500Z,39.63
2018-02-08T18:41:30.186Z,40.85
2018-02-08T18:43:57.814Z,39.45
2018-02-08T18:46:25.384Z,43.20
2018-02-08T18:48:52.929Z,45.67
2018-02-08T18:51:20.467Z,45.88
2018-02-08T18:53:48.806Z,44.13
2018-02-08T18:56:16.330Z,47.30
2018-02-08T18:58:43.997Z,48.53
2018-02-08T19:01:11.579Z,47.33
2018-02-08T19:03:39.184Z,46.67
2018-02-08T19:06:07.571Z,46.45
2018-02-08T19:08:35.152Z,47.10
2018-02-08T19:11:03.120Z,47.22
2018-02-08T19:13:30.679Z,46.33
2018-02-08T19:15:58.211Z,46.95
2018-02-08T19:18:26.557Z,46.42
2018-02-08T19:20:54.240Z,46.70
2018-02-08T19:23:22.935Z,49.10
2018-02-08T19:25:51.212Z,50.55
2018-02-08T19:28:19.549Z,48.13
2018-02-08T19:30:48.985Z,49.10
2018-02-08T19:33:17.391Z,49.85
2018-02-08T19:35:44.907Z,47.20
2018-02-08T19:38:12.456Z,44.70
2018-02-08T19:40:39.977Z,49.17
2018-02-08T19:43:07.599Z,47.38
2018-02-08T19:45:35.171Z,48.83
2018-02-08T19:48:03.099Z,47.65
2018-02-08T19:50:30.631Z,46.78
2018-02-08T19:52:58.290Z,49.50
2018-02-08T19:55:25.834Z,49.30
2018-02-08T19:57:53.743Z,48.33
2018-02-08T20:00:21.375Z,48.47
2018-02-08T20:02:49.005Z,48.63
2018-02-08T20:05:17.491Z,49.50
2018-02-08T20:07:45.821Z,49.30
2018-02-08T20:10:13.438Z,48.10
2018-02-08T20:12:40.996Z,51.58
2018-02-08T20:15:08.658Z,47.60
2018-02-08T20:17:36.979Z,51.10
2018-02-08T20:20:04.572Z,50.28
2018-02-08T20:22:33.104Z,50.83
2018-02-08T20:25:00.894Z,49.83
2018-02-08T20:27:28.432Z,47.83
2018-02-08T20:29:56.079Z,49.80
2018-02-08T20:32:23.645Z,50.83
2018-02-08T20:34:51.212Z,52.83
2018-02-08T20:37:18.916Z,50.72
2018-02-08T20:39:47.256Z,51.13
2018-02-08T20:42:20.366Z,51.88
2018-02-08T20:44:47.924Z,50.22
2018-02-08T20:47:15.519Z,53.58
2018-02-08T20:49:49.404Z,52.55
2018-02-08T20:52:17.009Z,57.05
2018-02-08T20:54:44.553Z,53.65
2018-02-08T20:57:12.883Z,55.40
2018-02-08T20:59:40.408Z,55.60
2018-02-08T21:02:07.972Z,55.67
2018-02-08T21:04:35.522Z,52.47
2018-02-08T21:07:03.095Z,53.80
2018-02-08T21:09:30.644Z,55.35
2018-02-08T21:11:58.261Z,56.35
2018-02-08T21:14:26.052Z,55.63
2018-02-08T21:16:53.685Z,53.80
2018-02-08T21:19:21.241Z,53.55
2018-02-08T21:21:48.803Z,56.05
2018-02-08T21:24:18.004Z,54.97
2018-02-08T21:26:45.562Z,57.55
2018-02-08T21:29:13.112Z,57.62
2018-02-08T21:31:40.730Z,56.70
2018-02-08T21:34:08.263Z,58.47
2018-02-08T21:36:35.913Z,55.10
2018-02-08T21:39:03.431Z,57.58
2018-02-08T21:41:31.149Z,54.40
2018-02-08T21:43:59.456Z,57.70
2018-02-08T21:46:27.055Z,55.42
2018-02-08T21:48:54.719Z,56.37
2018-02-08T21:51:22.464Z,58.55
2018-02-08T21:53:50.002Z,56.65
2018-02-08T21:56:17.530Z,59.55
2018-02-08T21:58:45.239Z,54.63
2018-02-08T22:01:12.777Z,58.40
2018-02-08T22:03:40.505Z,57.67
2018-02-08T22:06:08.985Z,59.92
2018-02-08T22:08:37.657Z,59.83
2018-02-08T22:11:05.968Z,54.97
2018-02-08T22:13:33.526Z,59.85
2018-02-08T22:16:01.403Z,61.67
2018-02-08T22:18:28.943Z,58.28
2018-02-08T22:20:57.271Z,60.50
2018-02-08T22:23:24.929Z,59.40
2018-02-08T22:25:52.444Z,60.10
2018-02-08T22:28:20.004Z,61.10
2018-02-08T22:30:47.529Z,58.53
2018-02-08T22:33:15.099Z,62.85
2018-02-08T22:35:42.785Z,60.30
2018-02-08T22:38:10.677Z,59.90
2018-02-08T22:40:38.206Z,64.90
2018-02-08T22:43:06.527Z,60.50
2018-02-08T22:45:34.055Z,59.95
2018-02-08T22:48:01.641Z,64.35
2018-02-08T22:50:29.200Z,60.53
2018-02-08T22:52:56.792Z,60.45
2018-02-08T22:55:25.244Z,62.47
2018-02-08T22:57:52.989Z,62.70
2018-02-08T23:00:20.568Z,60.75
2018-02-08T23:02:48.200Z,60.10
2018-02-08T23:05:15.832Z,64.47
2018-02-08T23:07:43.424Z,65.60
2018-02-08T23:10:11.112Z,62.35
2018-02-08T23:12:38.727Z,62.85
2018-02-08T23:15:06.329Z,65.28
2018-02-08T23:17:33.870Z,61.88
2018-02-08T23:20:01.549Z,62.65
2018-02-08T23:22:29.095Z,64.80
2018-02-08T23:24:56.742Z,61.05
2018-02-08T23:27:24.312Z,65.68
2018-02-08T23:29:52.806Z,63.33
2018-02-08T23:32:20.332Z,57.25
2018-02-08T23:34:47.919Z,63.13
2018-02-08T23:37:15.607Z,64.12
2018-02-08T23:39:43.231Z,66.22
2018-02-08T23:42:10.762Z,65.93
2018-02-08T23:44:39.061Z,63.17
2018-02-08T23:47:06.651Z,63.90
2018-02-08T23:49:34.191Z,61.30
2018-02-08T23:52:01.731Z,66.22
2018-02-08T23:54:30.346Z,64.00
2018-02-08T23:56:57.868Z,63.60
2018-02-08T23:59:26.249Z,64.43
